Time,TemperatureF,DewpointF,PressureIn,WindDirection,WindDirectionDegrees,WindSpeedMPH,WindSpeedGustMPH,Humidity,HourlyPrecipIn,Conditions,Clouds,dailyrainin,SoftwareType,DateUTC
2013-01-19 00:00:00,31.5,24.2,30.31,South,180,0.0,0.0,74,0.00,,,0.00,WUHU216TE923,2013-01-19 05:00:00,
2013-01-19 00:01:00,31.5,24.2,30.31,South,180,0.0,0.0,74,0.00,,,0.00,WUHU216TE923,2013-01-19 05:01:00,
2013-01-19 00:02:00,31.3,24.0,30.31,South,180,0.0,0.0,74,0.00,,,0.00,WUHU216TE923,2013-01-19 05:02:00,
2013-01-19 00:07:00,31.1,23.8,30.31,South,180,0.0,0.0,74,0.00,,,0.00,WUHU216TE923,2013-01-19 05:07:00,
2013-01-19 00:11:00,31.1,23.8,30.31,South,180,0.0,0.0,74,0.00,,,0.00,WUHU216TE923,2013-01-19 05:11:00,
2013-01-19 00:17:00,31.1,23.8,30.31,South,180,0.0,0.0,74,0.00,,,0.00,WUHU216TE923,2013-01-19 05:17:00,
2013-01-19 00:22:00,30.9,23.6,30.31,South,180,0.0,0.0,74,0.00,,,0.00,WUHU216TE923,2013-01-19 05:22:00,
2013-01-19 00:27:00,30.9,23.6,30.30,South,180,0.0,0.0,74,0.00,,,0.00,WUHU216TE923,2013-01-19 05:27:00,
2013-01-19 00:32:00,30.9,23.6,30.30,South,180,0.0,0.0,74,0.00,,,0.00,WUHU216TE923,2013-01-19 05:32:00,
2013-01-19 00:37:00,30.9,23.6,30.30,South,180,0.0,0.0,74,0.00,,,0.00,WUHU216TE923,2013-01-19 05:37:00,
2013-01-19 00:42:00,30.6,23.3,30.30,South,180,0.0,0.0,74,0.00,,,0.00,WUHU216TE923,2013-01-19 05:42:00,
2013-01-19 00:47:00,30.6,23.3,30.32,South,180,0.0,0.0,74,0.00,,,0.00,WUHU216TE923,2013-01-19 05:47:00,
2013-01-19 00:52:00,30.6,23.3,30.32,South,180,0.0,0.0,74,0.00,,,0.00,WUHU216TE923,2013-01-19 05:52:00,
2013-01-19 00:57:00,30.6,23.3,30.32,South,180,0.0,0.0,74,0.00,,,0.00,WUHU216TE923,2013-01-19 05:57:00,
2013-01-19 01:02:00,30.7,23.8,30.32,South,180,0.0,0.0,75,0.00,,,0.00,WUHU216TE923,2013-01-19 06:02:00,
2013-01-19 01:07:00,30.6,23.7,30.32,South,180,0.0,0.0,75,0.00,,,0.00,WUHU216TE923,2013-01-19 06:07:00,
2013-01-19 01:12:00,30.4,23.5,30.32,South,180,0.0,0.0,75,0.00,,,0.00,WUHU216TE923,2013-01-19 06:12:00,
2013-01-19 01:17:00,30.4,23.5,30.32,South,180,0.0,0.0,75,0.00,,,0.00,WUHU216TE923,2013-01-19 06:17:00,
2013-01-19 01:22:00,30.2,23.3,30.32,South,180,0.0,0.0,75,0.00,,,0.00,WUHU216TE923,2013-01-19 06:22:00,
2013-01-19 01:27:00,30.4,23.5,30.31,South,180,0.0,0.0,75,0.00,,,0.00,WUHU216TE923,2013-01-19 06:27:00,
2013-01-19 01:32:00,30.0,23.1,30.31,South,180,0.0,0.0,75,0.00,,,0.00,WUHU216TE923,2013-01-19 06:32:00,
2013-01-19 01:36:00,30.0,23.1,30.31,South,180,0.0,0.0,75,0.00,,,0.00,WUHU216TE923,2013-01-19 06:36:00,
2013-01-19 01:41:00,30.0,23.1,30.31,South,180,0.0,0.0,75,0.00,,,0.00,WUHU216TE923,2013-01-19 06:41:00,
2013-01-19 01:47:00,30.0,23.1,30.31,South,180,0.0,0.0,75,0.00,,,0.00,WUHU216TE923,2013-01-19 06:47:00,
2013-01-19 01:52:00,29.8,22.9,30.31,South,180,0.0,0.0,75,0.00,,,0.00,WUHU216TE923,2013-01-19 06:52:00,
2013-01-19 01:57:00,29.8,22.9,30.31,South,180,0.0,0.0,75,0.00,,,0.00,WUHU216TE923,2013-01-19 06:57:00,
2013-01-19 02:02:00,29.7,22.8,30.31,South,180,0.0,0.0,75,0.00,,,0.00,WUHU216TE923,2013-01-19 07:02:00,
2013-01-19 02:07:00,29.7,22.8,30.31,South,180,0.0,0.0,75,0.00,,,0.00,WUHU216TE923,2013-01-19 07:07:00,
2013-01-19 02:12:00,29.7,22.8,30.31,South,180,0.0,0.0,75,0.00,,,0.00,WUHU216TE923,2013-01-19 07:12:00,
2013-01-19 02:17:00,29.5,22.6,30.31,South,180,0.0,0.0,75,0.00,,,0.00,WUHU216TE923,2013-01-19 07:17:00,
2013-01-19 02:22:00,29.7,23.1,30.31,South,180,0.0,0.0,76,0.00,,,0.00,WUHU216TE923,2013-01-19 07:22:00,
2013-01-19 02:27:00,29.3,22.7,30.30,South,180,0.0,0.0,76,0.00,,,0.00,WUHU216TE923,2013-01-19 07:27:00,
2013-01-19 02:32:00,29.1,22.5,30.30,South,180,0.0,0.0,76,0.00,,,0.00,WUHU216TE923,2013-01-19 07:32:00,
2013-01-19 02:37:00,29.1,22.5,30.30,South,180,0.0,0.0,76,0.00,,,0.00,WUHU216TE923,2013-01-19 07:37:00,
2013-01-19 02:42:00,29.1,22.5,30.30,South,180,0.0,0.0,76,0.00,,,0.00,WUHU216TE923,2013-01-19 07:42:00,
2013-01-19 02:47:00,29.1,22.5,30.31,South,180,0.0,0.0,76,0.00,,,0.00,WUHU216TE923,2013-01-19 07:47:00,
2013-01-19 02:52:00,29.1,22.5,30.31,South,180,0.0,0.0,76,0.00,,,0.00,WUHU216TE923,2013-01-19 07:52:00,
2013-01-19 02:57:00,29.1,22.5,30.31,South,180,0.0,0.0,76,0.00,,,0.00,WUHU216TE923,2013-01-19 07:57:00,
2013-01-19 03:02:00,29.1,22.5,30.31,South,180,0.0,0.0,76,0.00,,,0.00,WUHU216TE923,2013-01-19 08:02:00,
2013-01-19 03:07:00,28.9,22.3,30.31,South,180,0.0,0.0,76,0.00,,,0.00,WUHU216TE923,2013-01-19 08:07:00,
2013-01-19 03:12:00,28.9,22.3,30.31,South,180,0.0,0.0,76,0.00,,,0.00,WUHU216TE923,2013-01-19 08:12:00,
2013-01-19 03:17:00,29.1,22.5,30.31,South,180,0.0,0.0,76,0.00,,,0.00,WUHU216TE923,2013-01-19 08:17:00,
2013-01-19 03:22:00,29.1,22.5,30.31,South,180,0.0,0.0,76,0.00,,,0.00,WUHU216TE923,2013-01-19 08:22:00,
2013-01-19 03:27:00,29.1,22.5,30.30,South,180,0.0,0.0,76,0.00,,,0.00,WUHU216TE923,2013-01-19 08:27:00,
2013-01-19 03:32:00,28.9,22.3,30.30,South,180,0.0,0.0,76,0.00,,,0.00,WUHU216TE923,2013-01-19 08:32:00,
2013-01-19 03:37:00,28.8,22.2,30.30,South,180,0.0,0.0,76,0.00,,,0.00,WUHU216TE923,2013-01-19 08:37:00,
2013-01-19 03:42:00,28.8,22.2,30.30,South,180,0.0,0.0,76,0.00,,,0.00,WUHU216TE923,2013-01-19 08:42:00,
2013-01-19 03:47:00,28.8,22.2,30.30,South,180,0.0,0.0,76,0.00,,,0.00,WUHU216TE923,2013-01-19 08:47:00,
2013-01-19 03:52:00,28.6,22.0,30.30,South,180,0.0,0.0,76,0.00,,,0.00,WUHU216TE923,2013-01-19 08:52:00,
2013-01-19 03:57:00,28.6,22.0,30.30,South,180,0.0,0.0,76,0.00,,,0.00,WUHU216TE923,2013-01-19 08:57:00,
2013-01-19 04:02:00,28.4,21.8,30.30,South,180,0.0,0.0,76,0.00,,,0.00,WUHU216TE923,2013-01-19 09:02:00,
2013-01-19 04:08:00,28.4,21.8,30.30,South,180,0.0,0.0,76,0.00,,,0.00,WUHU216TE923,2013-01-19 09:08:00,
2013-01-19 04:13:00,28.4,21.8,30.30,South,180,0.0,0.0,76,0.00,,,0.00,WUHU216TE923,2013-01-19 09:13:00,
2013-01-19 04:18:00,28.4,21.8,30.30,South,180,0.0,0.0,76,0.00,,,0.00,WUHU216TE923,2013-01-19 09:18:00,
2013-01-19 04:23:00,28.0,21.4,30.30,South,180,0.0,0.0,76,0.00,,,0.00,WUHU216TE923,2013-01-19 09:23:00,
2013-01-19 04:28:00,28.0,21.4,30.29,South,180,0.0,0.0,76,0.00,,,0.00,WUHU216TE923,2013-01-19 09:28:00,
2013-01-19 04:33:00,28.0,21.4,30.29,South,180,0.0,0.0,76,0.00,,,0.00,WUHU216TE923,2013-01-19 09:33:00,
2013-01-19 04:38:00,28.0,21.4,30.29,South,180,0.0,0.0,76,0.00,,,0.00,WUHU216TE923,2013-01-19 09:38:00,
2013-01-19 04:43:00,28.0,21.4,30.29,South,180,0.0,0.0,76,0.00,,,0.00,WUHU216TE923,2013-01-19 09:43:00,
2013-01-19 04:48:00,28.0,21.4,30.30,South,180,0.0,0.0,76,0.00,,,0.00,WUHU216TE923,2013-01-19 09:48:00,
2013-01-19 04:54:00,27.9,21.3,30.30,South,180,0.0,0.0,76,0.00,,,0.00,WUHU216TE923,2013-01-19 09:54:00,
2013-01-19 04:59:00,28.0,21.4,30.30,South,180,0.0,0.0,76,0.00,,,0.00,WUHU216TE923,2013-01-19 09:59:00,
2013-01-19 05:04:00,27.9,21.3,30.30,South,180,0.0,0.0,76,0.00,,,0.00,WUHU216TE923,2013-01-19 10:04:00,
2013-01-19 05:09:00,27.9,21.3,30.29,South,180,0.0,0.0,76,0.00,,,0.00,WUHU216TE923,2013-01-19 10:09:00,
2013-01-19 05:14:00,27.9,21.3,30.29,South,180,0.0,0.0,76,0.00,,,0.00,WUHU216TE923,2013-01-19 10:14:00,
2013-01-19 05:19:00,27.9,21.3,30.29,South,180,0.0,0.0,76,0.00,,,0.00,WUHU216TE923,2013-01-19 10:19:00,
2013-01-19 05:24:00,28.0,21.7,30.29,South,180,0.0,0.0,77,0.00,,,0.00,WUHU216TE923,2013-01-19 10:24:00,
2013-01-19 05:29:00,28.2,21.9,30.28,South,180,0.0,0.0,77,0.00,,,0.00,WUHU216TE923,2013-01-19 10:29:00,
2013-01-19 05:34:00,28.0,21.7,30.28,South,180,0.0,0.0,77,0.00,,,0.00,WUHU216TE923,2013-01-19 10:34:00,
2013-01-19 05:39:00,27.9,21.6,30.28,South,180,0.0,0.0,77,0.00,,,0.00,WUHU216TE923,2013-01-19 10:39:00,
2013-01-19 05:44:00,27.9,21.6,30.28,South,180,0.0,0.0,77,0.00,,,0.00,WUHU216TE923,2013-01-19 10:44:00,
2013-01-19 05:49:00,27.7,21.5,30.28,South,180,0.0,0.0,77,0.00,,,0.00,WUHU216TE923,2013-01-19 10:49:00,
2013-01-19 05:54:00,27.7,21.5,30.28,South,180,0.0,0.0,77,0.00,,,0.00,WUHU216TE923,2013-01-19 10:54:00,
2013-01-19 05:59:00,27.5,21.3,30.28,South,180,0.0,0.0,77,0.00,,,0.00,WUHU216TE923,2013-01-19 10:59:00,
2013-01-19 06:04:00,27.5,21.3,30.28,South,180,0.0,0.0,77,0.00,,,0.00,WUHU216TE923,2013-01-19 11:04:00,
2013-01-19 06:09:00,27.3,21.1,30.29,South,180,0.0,0.0,77,0.00,,,0.00,WUHU216TE923,2013-01-19 11:09:00,
2013-01-19 06:10:00,27.3,21.1,30.29,South,180,0.0,0.0,77,0.00,,,0.00,WUHU216TE923,2013-01-19 11:10:00,
2013-01-19 06:14:00,27.3,21.1,30.29,South,180,0.0,0.0,77,0.00,,,0.00,WUHU216TE923,2013-01-19 11:14:00,
2013-01-19 06:20:00,27.1,20.6,30.29,South,180,0.0,0.0,76,0.00,,,0.00,WUHU216TE923,2013-01-19 11:20:00,
2013-01-19 06:26:00,27.1,20.9,30.29,South,180,0.0,0.0,77,0.00,,,0.00,WUHU216TE923,2013-01-19 11:26:00,
2013-01-19 06:30:00,27.1,20.9,30.29,South,180,0.0,0.0,77,0.00,,,0.00,WUHU216TE923,2013-01-19 11:30:00,
2013-01-19 06:36:00,27.1,20.9,30.29,South,180,0.0,0.0,77,0.00,,,0.00,WUHU216TE923,2013-01-19 11:36:00,
2013-01-19 06:40:00,27.1,20.9,30.29,South,180,0.0,0.0,77,0.00,,,0.00,WUHU216TE923,2013-01-19 11:40:00,
2013-01-19 06:46:00,27.1,20.9,30.28,South,180,0.0,0.0,77,0.00,,,0.00,WUHU216TE923,2013-01-19 11:46:00,
2013-01-19 06:50:00,27.0,20.8,30.28,South,180,0.0,0.0,77,0.00,,,0.00,WUHU216TE923,2013-01-19 11:50:00,
2013-01-19 06:56:00,27.0,20.8,30.28,South,180,0.0,0.0,77,0.00,,,0.00,WUHU216TE923,2013-01-19 11:56:00,
2013-01-19 07:00:00,27.0,20.8,30.28,South,180,0.0,0.0,77,0.00,,,0.00,WUHU216TE923,2013-01-19 12:00:00,
2013-01-19 07:06:00,26.8,20.6,30.28,South,180,0.0,0.0,77,0.00,,,0.00,WUHU216TE923,2013-01-19 12:06:00,
2013-01-19 07:10:00,26.8,20.6,30.28,South,180,0.0,0.0,77,0.00,,,0.00,WUHU216TE923,2013-01-19 12:10:00,
2013-01-19 07:16:00,26.6,20.4,30.28,South,180,0.0,0.0,77,0.00,,,0.00,WUHU216TE923,2013-01-19 12:16:00,
2013-01-19 07:20:00,26.8,20.6,30.28,South,180,0.0,0.0,77,0.00,,,0.00,WUHU216TE923,2013-01-19 12:20:00,
2013-01-19 07:26:00,26.8,20.6,30.28,South,180,0.0,0.0,77,0.00,,,0.00,WUHU216TE923,2013-01-19 12:26:00,
2013-01-19 07:30:00,26.6,20.4,30.28,South,180,0.0,0.0,77,0.00,,,0.00,WUHU216TE923,2013-01-19 12:30:00,
2013-01-19 07:36:00,26.6,20.4,30.28,South,180,0.0,0.0,77,0.00,,,0.00,WUHU216TE923,2013-01-19 12:36:00,
2013-01-19 07:40:00,26.6,20.4,30.28,South,180,0.0,0.0,77,0.00,,,0.00,WUHU216TE923,2013-01-19 12:40:00,
2013-01-19 07:50:00,26.2,19.7,30.29,South,180,0.0,0.0,76,0.00,,,0.00,WUHU216TE923,2013-01-19 12:50:00,
2013-01-19 07:56:00,26.2,19.7,30.29,South,180,0.0,0.0,76,0.00,,,0.00,WUHU216TE923,2013-01-19 12:56:00,
2013-01-19 08:00:00,26.2,19.7,30.29,South,180,0.0,0.0,76,0.00,,,0.00,WUHU216TE923,2013-01-19 13:00:00,
2013-01-19 08:06:00,26.2,19.7,30.30,South,180,0.0,0.0,76,0.00,,,0.00,WUHU216TE923,2013-01-19 13:06:00,
2013-01-19 08:10:00,26.4,19.9,30.30,South,180,0.0,0.0,76,0.00,,,0.00,WUHU216TE923,2013-01-19 13:10:00,
2013-01-19 08:16:00,26.4,19.9,30.30,South,180,0.0,0.0,76,0.00,,,0.00,WUHU216TE923,2013-01-19 13:16:00,
2013-01-19 08:20:00,26.8,20.6,30.30,South,180,0.0,0.0,77,0.00,,,0.00,WUHU216TE923,2013-01-19 13:20:00,
2013-01-19 08:26:00,27.0,20.8,30.30,South,180,0.0,0.0,77,0.00,,,0.00,WUHU216TE923,2013-01-19 13:26:00,
2013-01-19 08:30:00,27.3,21.1,30.30,South,180,0.0,0.0,77,0.00,,,0.00,WUHU216TE923,2013-01-19 13:30:00,
2013-01-19 08:36:00,27.7,21.5,30.30,South,180,0.0,0.0,77,0.00,,,0.00,WUHU216TE923,2013-01-19 13:36:00,
2013-01-19 08:40:00,28.4,22.1,30.30,South,180,0.0,0.0,77,0.00,,,0.00,WUHU216TE923,2013-01-19 13:40:00,
2013-01-19 08:50:00,29.3,23.3,30.30,South,180,0.0,0.0,78,0.00,,,0.00,WUHU216TE923,2013-01-19 13:50:00,
2013-01-19 09:00:00,30.4,24.4,30.30,South,180,0.0,0.0,78,0.00,,,0.00,WUHU216TE923,2013-01-19 14:00:00,
2013-01-19 09:06:00,30.9,24.9,30.29,South,180,0.0,0.0,78,0.00,,,0.00,WUHU216TE923,2013-01-19 14:06:00,
2013-01-19 09:10:00,31.8,25.7,30.29,South,180,0.0,0.0,78,0.00,,,0.00,WUHU216TE923,2013-01-19 14:10:00,
2013-01-19 09:16:00,32.5,26.4,30.29,South,180,0.0,0.0,78,0.00,,,0.00,WUHU216TE923,2013-01-19 14:16:00,
2013-01-19 09:20:00,33.8,27.4,30.29,South,180,0.0,0.0,77,0.00,,,0.00,WUHU216TE923,2013-01-19 14:20:00,
2013-01-19 09:26:00,34.5,27.8,30.30,South,180,0.0,0.0,76,0.00,,,0.00,WUHU216TE923,2013-01-19 14:26:00,
2013-01-19 09:30:00,35.6,28.8,30.30,South,180,0.0,0.0,76,0.00,,,0.00,WUHU216TE923,2013-01-19 14:30:00,
2013-01-19 09:36:00,36.1,29.0,30.30,South,180,0.0,0.0,75,0.00,,,0.00,WUHU216TE923,2013-01-19 14:36:00,
2013-01-19 09:40:00,37.0,29.5,30.30,South,180,0.0,0.0,74,0.00,,,0.00,WUHU216TE923,2013-01-19 14:40:00,
2013-01-19 09:46:00,37.8,29.6,30.32,South,180,0.0,0.0,72,0.00,,,0.00,WUHU216TE923,2013-01-19 14:46:00,
2013-01-19 09:50:00,38.7,30.2,30.32,South,180,0.0,1.1,71,0.00,,,0.00,WUHU216TE923,2013-01-19 14:50:00,
2013-01-19 10:00:00,39.2,29.6,30.32,ESE,113,0.3,0.3,68,0.00,,,0.00,WUHU216TE923,2013-01-19 15:00:00,
2013-01-19 10:10:00,40.8,30.4,30.32,SSE,158,0.0,0.3,66,0.00,,,0.00,WUHU216TE923,2013-01-19 15:10:00,
2013-01-19 10:16:00,41.5,31.1,30.32,SW,225,0.0,0.0,66,0.00,,,0.00,WUHU216TE923,2013-01-19 15:16:00,
2013-01-19 10:20:00,41.5,28.3,30.32,WSW,248,0.1,1.1,59,0.00,,,0.00,WUHU216TE923,2013-01-19 15:20:00,
2013-01-19 10:26:00,41.9,28.2,30.32,SW,225,0.5,2.4,58,0.00,,,0.00,WUHU216TE923,2013-01-19 15:26:00,
2013-01-19 10:30:00,42.4,27.8,30.32,South,180,1.1,2.4,56,0.00,,,0.00,WUHU216TE923,2013-01-19 15:30:00,
2013-01-19 10:36:00,43.3,28.2,30.32,South,180,1.1,1.4,55,0.00,,,0.00,WUHU216TE923,2013-01-19 15:36:00,
2013-01-19 10:40:00,44.6,29.5,30.32,NW,315,0.6,1.4,55,0.00,,,0.00,WUHU216TE923,2013-01-19 15:40:00,
2013-01-19 10:46:00,44.8,27.7,30.29,South,180,0.7,2.0,51,0.00,,,0.00,WUHU216TE923,2013-01-19 15:46:00,
2013-01-19 10:50:00,45.7,28.1,30.29,South,180,0.6,2.0,50,0.00,,,0.00,WUHU216TE923,2013-01-19 15:50:00,
2013-01-19 10:56:00,45.7,26.0,30.29,SSE,158,0.8,2.8,46,0.00,,,0.00,WUHU216TE923,2013-01-19 15:56:00,
2013-01-19 11:00:00,46.0,24.6,30.29,SSW,203,1.2,2.8,43,0.00,,,0.00,WUHU216TE923,2013-01-19 16:00:00,
2013-01-19 11:10:00,47.3,25.2,30.31,WSW,248,2.1,2.6,42,0.00,,,0.00,WUHU216TE923,2013-01-19 16:10:00,
2013-01-19 11:16:00,47.3,24.6,30.31,WSW,248,1.9,3.3,41,0.00,,,0.00,WUHU216TE923,2013-01-19 16:16:00,
2013-01-19 11:20:00,48.2,25.4,30.31,NW,315,1.7,3.3,41,0.00,,,0.00,WUHU216TE923,2013-01-19 16:20:00,
2013-01-19 11:26:00,48.4,26.2,30.28,NNW,338,1.6,1.7,42,0.00,,,0.00,WUHU216TE923,2013-01-19 16:26:00,
2013-01-19 11:30:00,48.9,26.6,30.28,South,180,0.9,1.6,42,0.00,,,0.00,WUHU216TE923,2013-01-19 16:30:00,
2013-01-19 11:36:00,49.3,25.8,30.28,NW,315,0.8,2.4,40,0.00,,,0.00,WUHU216TE923,2013-01-19 16:36:00,
2013-01-19 11:40:00,50.2,26.6,30.28,WNW,293,1.2,2.4,40,0.00,,,0.00,WUHU216TE923,2013-01-19 16:40:00,
2013-01-19 11:46:00,50.0,25.2,30.28,WSW,248,1.2,1.7,38,0.00,,,0.00,WUHU216TE923,2013-01-19 16:46:00,
2013-01-19 11:50:00,49.8,26.3,30.28,NW,315,1.1,2.3,40,0.00,,,0.00,WUHU216TE923,2013-01-19 16:50:00,
2013-01-19 11:56:00,50.4,26.8,30.28,West,270,1.1,2.3,40,0.00,,,0.00,WUHU216TE923,2013-01-19 16:56:00,
2013-01-19 12:00:00,50.0,25.2,30.28,South,180,1.4,3.0,38,0.00,,,0.00,WUHU216TE923,2013-01-19 17:00:00,
2013-01-19 12:10:00,50.4,25.5,30.26,SSW,203,1.3,2.3,38,0.00,,,0.00,WUHU216TE923,2013-01-19 17:10:00,
2013-01-19 12:20:00,51.1,24.8,30.26,SSW,203,2.0,2.7,36,0.00,,,0.00,WUHU216TE923,2013-01-19 17:20:00,
2013-01-19 12:26:00,50.5,22.2,30.24,SSW,203,1.9,2.5,33,0.00,,,0.00,WUHU216TE923,2013-01-19 17:26:00,
2013-01-19 12:30:00,50.7,21.7,30.24,SSE,158,2.5,2.5,32,0.00,,,0.00,WUHU216TE923,2013-01-19 17:30:00,
2013-01-19 12:36:00,51.3,22.2,30.24,SW,225,2.3,4.0,32,0.00,,,0.00,WUHU216TE923,2013-01-19 17:36:00,
2013-01-19 12:40:00,51.3,20.7,30.24,SSW,203,2.7,5.9,30,0.00,,,0.00,WUHU216TE923,2013-01-19 17:40:00,
2013-01-19 12:46:00,51.4,20.0,30.22,South,180,3.3,5.9,29,0.00,,,0.00,WUHU216TE923,2013-01-19 17:46:00,
2013-01-19 12:50:00,52.0,21.3,30.22,NW,315,3.0,4.0,30,0.00,,,0.00,WUHU216TE923,2013-01-19 17:50:00,
2013-01-19 12:56:00,51.6,19.3,30.22,South,180,3.0,4.1,28,0.00,,,0.00,WUHU216TE923,2013-01-19 17:56:00,
2013-01-19 13:00:00,52.3,19.9,30.22,WSW,248,3.1,4.5,28,0.00,,,0.00,WUHU216TE923,2013-01-19 18:00:00,
2013-01-19 13:06:00,52.3,19.9,30.20,WSW,248,3.1,4.5,28,0.00,,,0.00,WUHU216TE923,2013-01-19 18:06:00,
2013-01-19 13:10:00,52.7,21.9,30.20,South,180,2.9,3.7,30,0.00,,,0.00,WUHU216TE923,2013-01-19 18:10:00,
2013-01-19 13:20:00,53.1,21.4,30.20,South,180,2.6,5.0,29,0.00,,,0.00,WUHU216TE923,2013-01-19 18:20:00,
2013-01-19 13:30:00,53.4,22.5,30.19,West,270,2.7,2.9,30,0.00,,,0.00,WUHU216TE923,2013-01-19 18:30:00,
2013-01-19 13:36:00,53.2,20.7,30.19,WNW,293,2.5,2.9,28,0.00,,,0.00,WUHU216TE923,2013-01-19 18:36:00,
2013-01-19 13:40:00,54.0,21.4,30.19,SSW,203,2.6,2.8,28,0.00,,,0.00,WUHU216TE923,2013-01-19 18:40:00,
2013-01-19 13:46:00,54.1,22.3,30.16,NW,315,2.5,2.6,29,0.00,,,0.00,WUHU216TE923,2013-01-19 18:46:00,
2013-01-19 13:50:00,54.1,20.7,30.16,WNW,293,2.7,3.9,27,0.00,,,0.00,WUHU216TE923,2013-01-19 18:50:00,
2013-01-19 13:56:00,54.7,21.2,30.16,NW,315,2.7,3.9,27,0.00,,,0.00,WUHU216TE923,2013-01-19 18:56:00,
2013-01-19 14:00:00,54.7,19.4,30.16,WSW,248,3.1,6.6,25,0.00,,,0.00,WUHU216TE923,2013-01-19 19:00:00,
2013-01-19 14:06:00,55.4,20.9,30.15,SW,225,3.1,6.6,26,0.00,,,0.00,WUHU216TE923,2013-01-19 19:06:00,
2013-01-19 14:10:00,55.6,21.1,30.15,NW,315,3.5,3.6,26,0.00,,,0.00,WUHU216TE923,2013-01-19 19:10:00,
2013-01-19 14:16:00,56.3,21.7,30.15,West,270,3.6,3.6,26,0.00,,,0.00,WUHU216TE923,2013-01-19 19:16:00,
2013-01-19 14:20:00,57.4,21.7,30.15,NW,315,3.0,5.6,25,0.00,,,0.00,WUHU216TE923,2013-01-19 19:20:00,
2013-01-19 14:30:00,57.2,19.6,30.14,SW,225,3.2,5.7,23,0.00,,,0.00,WUHU216TE923,2013-01-19 19:30:00,
2013-01-19 14:40:00,58.5,21.7,30.14,NW,315,2.9,4.8,24,0.00,,,0.00,WUHU216TE923,2013-01-19 19:40:00,
2013-01-19 14:46:00,58.3,20.5,30.14,SSE,158,3.4,9.4,23,0.00,,,0.00,WUHU216TE923,2013-01-19 19:46:00,
2013-01-19 14:56:00,58.6,21.8,30.14,WSW,248,3.8,3.8,24,0.00,,,0.00,WUHU216TE923,2013-01-19 19:56:00,
2013-01-19 15:00:00,58.8,20.9,30.14,West,270,3.4,6.0,23,0.00,,,0.00,WUHU216TE923,2013-01-19 20:00:00,
2013-01-19 15:06:00,57.4,19.8,30.13,WSW,248,3.3,6.0,23,0.00,,,0.00,WUHU216TE923,2013-01-19 20:06:00,
2013-01-19 15:10:00,55.4,19.1,30.13,SW,225,3.2,3.3,24,0.00,,,0.00,WUHU216TE923,2013-01-19 20:10:00,
2013-01-19 15:16:00,54.1,17.0,30.13,WSW,248,3.4,3.4,23,0.00,,,0.00,WUHU216TE923,2013-01-19 20:16:00,
2013-01-19 15:20:00,53.4,16.4,30.13,West,270,3.7,6.7,23,0.00,,,0.00,WUHU216TE923,2013-01-19 20:20:00,
2013-01-19 15:26:00,53.6,17.5,30.12,SW,225,3.5,6.9,24,0.00,,,0.00,WUHU216TE923,2013-01-19 20:26:00,
2013-01-19 15:30:00,53.1,17.1,30.12,SW,225,3.5,6.9,24,0.00,,,0.00,WUHU216TE923,2013-01-19 20:30:00,
2013-01-19 15:36:00,52.9,16.9,30.12,North,0,3.4,5.3,24,0.00,,,0.00,WUHU216TE923,2013-01-19 20:36:00,
2013-01-19 15:40:00,53.1,18.0,30.12,WNW,293,3.2,3.4,25,0.00,,,0.00,WUHU216TE923,2013-01-19 20:40:00,
2013-01-19 15:50:00,52.9,19.6,30.12,NW,315,3.0,4.0,27,0.00,,,0.00,WUHU216TE923,2013-01-19 20:50:00,
2013-01-19 16:00:00,52.3,18.2,30.12,SW,225,3.2,5.0,26,0.00,,,0.00,WUHU216TE923,2013-01-19 21:00:00,
2013-01-19 16:06:00,52.3,18.2,30.12,West,270,2.7,4.6,26,0.00,,,0.00,WUHU216TE923,2013-01-19 21:06:00,
2013-01-19 16:10:00,52.2,18.2,30.12,West,270,2.4,4.6,26,0.00,,,0.00,WUHU216TE923,2013-01-19 21:10:00,
2013-01-19 16:16:00,52.2,19.0,30.12,West,270,2.5,3.7,27,0.00,,,0.00,WUHU216TE923,2013-01-19 21:16:00,
2013-01-19 16:20:00,52.0,18.8,30.12,WNW,293,2.2,4.1,27,0.00,,,0.00,WUHU216TE923,2013-01-19 21:20:00,
2013-01-19 16:26:00,51.4,18.3,30.12,WSW,248,2.4,4.1,27,0.00,,,0.00,WUHU216TE923,2013-01-19 21:26:00,
2013-01-19 16:30:00,51.3,19.1,30.12,West,270,2.5,3.8,28,0.00,,,0.00,WUHU216TE923,2013-01-19 21:30:00,
2013-01-19 16:36:00,51.1,18.9,30.12,SW,225,1.9,4.0,28,0.00,,,0.00,WUHU216TE923,2013-01-19 21:36:00,
2013-01-19 16:40:00,50.7,18.6,30.12,SW,225,1.7,4.0,28,0.00,,,0.00,WUHU216TE923,2013-01-19 21:40:00,
2013-01-19 16:46:00,50.4,19.1,30.11,NW,315,2.0,4.2,29,0.00,,,0.00,WUHU216TE923,2013-01-19 21:46:00,
2013-01-19 16:50:00,50.2,18.9,30.11,NW,315,2.1,4.2,29,0.00,,,0.00,WUHU216TE923,2013-01-19 21:50:00,
2013-01-19 17:00:00,49.6,19.2,30.11,West,270,1.9,3.1,30,0.00,,,0.00,WUHU216TE923,2013-01-19 22:00:00,
2013-01-19 17:10:00,49.3,18.9,30.11,SW,225,2.1,3.0,30,0.00,,,0.00,WUHU216TE923,2013-01-19 22:10:00,
2013-01-19 17:16:00,49.1,18.8,30.11,North,0,2.3,3.0,30,0.00,,,0.00,WUHU216TE923,2013-01-19 22:16:00,
2013-01-19 17:20:00,48.9,18.6,30.11,SW,225,2.4,3.1,30,0.00,,,0.00,WUHU216TE923,2013-01-19 22:20:00,
2013-01-19 17:26:00,48.7,19.2,30.12,SW,225,2.2,3.1,31,0.00,,,0.00,WUHU216TE923,2013-01-19 22:26:00,
2013-01-19 17:30:00,48.2,18.7,30.12,WNW,293,1.9,3.2,31,0.00,,,0.00,WUHU216TE923,2013-01-19 22:30:00,
2013-01-19 17:36:00,48.0,19.3,30.12,South,180,1.8,3.2,32,0.00,,,0.00,WUHU216TE923,2013-01-19 22:36:00,
2013-01-19 17:40:00,47.7,19.0,30.12,WSW,248,1.4,1.8,32,0.00,,,0.00,WUHU216TE923,2013-01-19 22:40:00,
2013-01-19 17:46:00,47.3,19.4,30.12,West,270,1.0,1.4,33,0.00,,,0.00,WUHU216TE923,2013-01-19 22:46:00,
2013-01-19 17:50:00,46.6,19.5,30.12,WSW,248,0.4,2.8,34,0.00,,,0.00,WUHU216TE923,2013-01-19 22:50:00,
2013-01-19 17:56:00,46.6,20.2,30.12,NW,315,0.3,2.8,35,0.00,,,0.00,WUHU216TE923,2013-01-19 22:56:00,
2013-01-19 18:00:00,45.9,20.2,30.12,NW,315,0.3,0.3,36,0.00,,,0.00,WUHU216TE923,2013-01-19 23:00:00,
2013-01-19 18:10:00,44.8,21.1,30.13,WNW,293,0.0,0.0,39,0.00,,,0.00,WUHU216TE923,2013-01-19 23:10:00,
2013-01-19 18:20:00,44.1,21.1,30.13,NW,315,0.0,0.0,40,0.00,,,0.00,WUHU216TE923,2013-01-19 23:20:00,
2013-01-19 18:26:00,43.7,20.7,30.14,NW,315,0.0,0.0,40,0.00,,,0.00,WUHU216TE923,2013-01-19 23:26:00,
2013-01-19 18:30:00,43.2,21.5,30.14,NW,315,0.0,0.0,42,0.00,,,0.00,WUHU216TE923,2013-01-19 23:30:00,
2013-01-19 18:36:00,43.0,21.9,30.14,NW,315,0.0,0.0,43,0.00,,,0.00,WUHU216TE923,2013-01-19 23:36:00,
2013-01-19 18:40:00,42.6,23.1,30.14,NW,315,0.0,0.0,46,0.00,,,0.00,WUHU216TE923,2013-01-19 23:40:00,
2013-01-19 18:46:00,42.3,22.9,30.13,NW,315,0.0,0.0,46,0.00,,,0.00,WUHU216TE923,2013-01-19 23:46:00,
2013-01-19 18:50:00,41.7,22.8,30.13,NW,315,0.0,0.0,47,0.00,,,0.00,WUHU216TE923,2013-01-19 23:50:00,
2013-01-19 18:56:00,41.5,23.2,30.13,NW,315,0.0,0.0,48,0.00,,,0.00,WUHU216TE923,2013-01-19 23:56:00,
2013-01-19 19:00:00,40.8,23.0,30.13,SE,135,0.0,0.0,49,0.00,,,0.00,WUHU216TE923,2013-01-20 00:00:00,
2013-01-19 19:06:00,40.3,22.6,30.13,SE,135,0.0,0.0,49,0.00,,,0.00,WUHU216TE923,2013-01-20 00:06:00,
2013-01-19 19:10:00,39.9,22.7,30.13,SE,135,0.0,0.0,50,0.00,,,0.00,WUHU216TE923,2013-01-20 00:10:00,
2013-01-19 19:20:00,39.4,22.7,30.13,SE,135,0.0,0.0,51,0.00,,,0.00,WUHU216TE923,2013-01-20 00:20:00,
2013-01-19 19:26:00,39.2,23.0,30.13,SW,225,0.0,0.0,52,0.00,,,0.00,WUHU216TE923,2013-01-20 00:26:00,
2013-01-19 19:30:00,39.2,23.0,30.13,SW,225,0.0,0.0,52,0.00,,,0.00,WUHU216TE923,2013-01-20 00:30:00,
2013-01-19 19:36:00,39.0,23.3,30.13,SW,225,0.0,0.0,53,0.00,,,0.00,WUHU216TE923,2013-01-20 00:36:00,
2013-01-19 19:40:00,38.8,23.1,30.13,SW,225,0.0,0.0,53,0.00,,,0.00,WUHU216TE923,2013-01-20 00:40:00,
2013-01-19 19:48:00,38.7,23.5,30.14,SW,225,0.0,0.0,54,0.00,,,0.00,WUHU216TE923,2013-01-20 00:48:00,
2013-01-19 19:53:00,38.5,23.3,30.14,SW,225,0.0,0.0,54,0.00,,,0.00,WUHU216TE923,2013-01-20 00:53:00,
2013-01-19 19:58:00,38.3,23.6,30.14,SW,225,0.0,0.0,55,0.00,,,0.00,WUHU216TE923,2013-01-20 00:58:00,
2013-01-19 20:03:00,38.1,23.4,30.14,SW,225,0.0,0.0,55,0.00,,,0.00,WUHU216TE923,2013-01-20 01:03:00,
2013-01-19 20:08:00,37.8,23.1,30.14,SW,225,0.0,0.0,55,0.00,,,0.00,WUHU216TE923,2013-01-20 01:08:00,
2013-01-19 20:13:00,37.8,23.1,30.14,NW,315,0.0,0.0,55,0.00,,,0.00,WUHU216TE923,2013-01-20 01:13:00,
2013-01-19 20:19:00,37.6,23.3,30.14,NW,315,0.0,0.0,56,0.00,,,0.00,WUHU216TE923,2013-01-20 01:19:00,
2013-01-19 20:24:00,37.6,23.3,30.14,NW,315,0.0,0.0,56,0.00,,,0.00,WUHU216TE923,2013-01-20 01:24:00,
2013-01-19 20:29:00,37.6,23.3,30.13,NW,315,0.0,0.0,56,0.00,,,0.00,WUHU216TE923,2013-01-20 01:29:00,
2013-01-19 20:34:00,37.4,23.1,30.13,WSW,248,0.0,0.0,56,0.00,,,0.00,WUHU216TE923,2013-01-20 01:34:00,
2013-01-19 20:39:00,37.2,23.4,30.13,SW,225,0.0,0.0,57,0.00,,,0.00,WUHU216TE923,2013-01-20 01:39:00,
2013-01-19 20:45:00,36.9,23.1,30.13,ENE,68,0.0,0.0,57,0.00,,,0.00,WUHU216TE923,2013-01-20 01:45:00,
2013-01-19 20:50:00,36.9,23.1,30.14,East,90,0.0,0.0,57,0.00,,,0.00,WUHU216TE923,2013-01-20 01:50:00,
2013-01-19 20:55:00,36.5,23.2,30.14,East,90,0.0,0.0,58,0.00,,,0.00,WUHU216TE923,2013-01-20 01:55:00,
2013-01-19 21:01:00,36.0,22.7,30.14,SSW,203,0.0,0.0,58,0.00,,,0.00,WUHU216TE923,2013-01-20 02:01:00,
2013-01-19 21:06:00,36.0,22.7,30.14,SSW,203,0.0,0.0,58,0.00,,,0.00,WUHU216TE923,2013-01-20 02:06:00,
2013-01-19 21:11:00,35.6,22.7,30.14,SSW,203,0.2,1.8,59,0.00,,,0.00,WUHU216TE923,2013-01-20 02:11:00,
2013-01-19 21:16:00,35.6,22.7,30.14,SSW,203,0.2,1.8,59,0.00,,,0.00,WUHU216TE923,2013-01-20 02:16:00,
2013-01-19 21:21:00,35.2,23.2,30.14,ENE,68,0.7,1.2,61,0.00,,,0.00,WUHU216TE923,2013-01-20 02:21:00,
2013-01-19 21:26:00,35.2,23.2,30.14,ENE,68,0.7,1.2,61,0.00,,,0.00,WUHU216TE923,2013-01-20 02:26:00,
2013-01-19 21:31:00,34.9,23.3,30.12,WSW,248,0.1,0.4,62,0.00,,,0.00,WUHU216TE923,2013-01-20 02:31:00,
2013-01-19 21:37:00,34.9,23.3,30.12,ESE,113,0.0,0.1,62,0.00,,,0.00,WUHU216TE923,2013-01-20 02:37:00,
2013-01-19 21:42:00,34.9,23.3,30.12,NE,45,0.2,0.2,62,0.00,,,0.00,WUHU216TE923,2013-01-20 02:42:00,
2013-01-19 21:47:00,34.7,23.1,30.12,South,180,0.2,0.2,62,0.00,,,0.00,WUHU216TE923,2013-01-20 02:47:00,
2013-01-19 21:52:00,34.5,22.9,30.12,South,180,0.0,0.2,62,0.00,,,0.00,WUHU216TE923,2013-01-20 02:52:00,
2013-01-19 21:57:00,34.5,23.3,30.12,ENE,68,0.0,0.0,63,0.00,,,0.00,WUHU216TE923,2013-01-20 02:57:00,
2013-01-19 22:02:00,34.5,23.3,30.12,SW,225,0.0,0.0,63,0.00,,,0.00,WUHU216TE923,2013-01-20 03:02:00,
2013-01-19 22:07:00,34.3,23.1,30.13,SW,225,0.0,0.0,63,0.00,,,0.00,WUHU216TE923,2013-01-20 03:07:00,
2013-01-19 22:12:00,34.2,23.4,30.13,NW,315,0.1,0.1,64,0.00,,,0.00,WUHU216TE923,2013-01-20 03:12:00,
2013-01-19 22:17:00,34.2,23.4,30.13,NW,315,0.1,0.1,64,0.00,,,0.00,WUHU216TE923,2013-01-20 03:17:00,
2013-01-19 22:23:00,33.8,23.0,30.13,WNW,293,0.0,0.1,64,0.00,,,0.00,WUHU216TE923,2013-01-20 03:23:00,
2013-01-19 22:28:00,33.8,23.3,30.12,NE,45,0.0,0.0,65,0.00,,,0.00,WUHU216TE923,2013-01-20 03:28:00,
2013-01-19 22:33:00,34.0,23.5,30.12,NNW,338,0.0,0.0,65,0.00,,,0.00,WUHU216TE923,2013-01-20 03:33:00,
2013-01-19 22:38:00,33.8,23.3,30.12,ENE,68,0.0,0.0,65,0.00,,,0.00,WUHU216TE923,2013-01-20 03:38:00,
2013-01-19 22:43:00,33.8,23.3,30.12,ENE,68,0.0,0.0,65,0.00,,,0.00,WUHU216TE923,2013-01-20 03:43:00,
2013-01-19 22:48:00,33.4,23.3,30.11,East,90,0.0,0.0,66,0.00,,,0.00,WUHU216TE923,2013-01-20 03:48:00,
2013-01-19 22:53:00,33.3,23.2,30.11,ENE,68,0.0,0.0,66,0.00,,,0.00,WUHU216TE923,2013-01-20 03:53:00,
2013-01-19 22:58:00,33.3,23.2,30.11,ESE,113,0.0,0.0,66,0.00,,,0.00,WUHU216TE923,2013-01-20 03:58:00,
2013-01-19 23:03:00,33.1,23.0,30.11,ESE,113,0.0,0.0,66,0.00,,,0.00,WUHU216TE923,2013-01-20 04:03:00,
2013-01-19 23:08:00,32.9,22.9,30.10,East,90,0.0,0.0,66,0.00,,,0.00,WUHU216TE923,2013-01-20 04:08:00,
2013-01-19 23:13:00,32.7,22.7,30.10,WSW,248,0.0,0.0,66,0.00,,,0.00,WUHU216TE923,2013-01-20 04:13:00,
2013-01-19 23:18:00,32.7,22.7,30.10,WSW,248,0.0,0.0,66,0.00,,,0.00,WUHU216TE923,2013-01-20 04:18:00,
2013-01-19 23:23:00,32.7,23.0,30.10,WSW,248,0.0,0.0,67,0.00,,,0.00,WUHU216TE923,2013-01-20 04:23:00,
2013-01-19 23:28:00,32.7,23.0,30.11,WSW,248,0.0,0.0,67,0.00,,,0.00,WUHU216TE923,2013-01-20 04:28:00,
2013-01-19 23:33:00,32.7,23.0,30.11,ESE,113,0.0,0.0,67,0.00,,,0.00,WUHU216TE923,2013-01-20 04:33:00,
2013-01-19 23:38:00,32.7,23.0,30.11,SW,225,0.0,0.0,67,0.00,,,0.00,WUHU216TE923,2013-01-20 04:38:00,
2013-01-19 23:43:00,32.5,22.8,30.11,West,270,0.0,0.0,67,0.00,,,0.00,WUHU216TE923,2013-01-20 04:43:00,
2013-01-19 23:48:00,32.4,23.1,30.10,West,270,0.0,0.0,68,0.00,,,0.00,WUHU216TE923,2013-01-20 04:48:00,
2013-01-19 23:54:00,32.4,23.1,30.10,West,270,0.0,0.0,68,0.00,,,0.00,WUHU216TE923,2013-01-20 04:54:00,
2013-01-19 23:59:00,32.4,23.1,30.10,West,270,0.0,0.0,68,0.00,,,0.00,WUHU216TE923,2013-01-20 04:59:00,